Time;durP1;ratioP1;P1;durP2;ratioP2;P2;SDS_P1;SDS_P2;PMS_P1;PMS_P2;Temp;Humidity;BMP_temperature;BMP_pressure;BME280_temperature;BME280_humidity;BME280_pressure;Samples;Min_cycle;Max_cycle;Signal;HPM_P1;HPM_P2
2022/07/07 14:29:13;;;;;;;2.58;0.90;;;;;;;;;;5067625;28;20436;-65
2022/07/07 14:31:40;;;;;;;3.55;0.80;;;;;;;;;;5083166;28;20032;-66
2022/07/07 14:34:06;;;;;;;4.30;1.20;;;;;;;;;;5087941;28;20024;-66
2022/07/07 14:36:32;;;;;;;4.10;0.82;;;;;;;;;;5086968;28;20538;-65
2022/07/07 14:38:59;;;;;;;4.50;0.88;;;;;;;;;;5080782;28;20021;-65
2022/07/07 14:41:26;;;;;;;1.58;1.05;;;;;;;;;;5066526;28;20025;-66
2022/07/07 14:43:52;;;;;;;6.45;2.08;;;;;;;;;;5067164;28;20017;-65
2022/07/07 14:46:18;;;;;;;2.05;1.00;;;;;;;;;;5068210;28;20047;-66
2022/07/07 14:48:44;;;;;;;2.67;1.20;;;;;;;;;;5067788;28;20025;-66
2022/07/07 14:51:10;;;;;;;1.40;0.75;;;;;;;;;;5062999;28;20025;-65
2022/07/07 14:53:36;;;;;;;5.80;0.80;;;;;;;;;;5067634;28;20024;-65
2022/07/07 14:56:03;;;;;;;7.32;1.00;;;;;;;;;;5067301;28;20486;-66
2022/07/07 14:58:29;;;;;;;2.33;1.00;;;;;;;;;;5067522;28;20049;-65
2022/07/07 15:00:56;;;;;;;4.57;1.10;;;;;;;;;;5067252;28;20020;-65
2022/07/07 15:03:25;;;;;;;12.05;1.30;;;;;;;;;;5066979;28;20017;-66
2022/07/07 15:05:51;;;;;;;3.40;0.75;;;;;;;;;;5066956;28;20032;-65
2022/07/07 15:08:17;;;;;;;2.67;0.80;;;;;;;;;;5067282;28;20056;-65
2022/07/07 15:10:43;;;;;;;3.72;0.90;;;;;;;;;;5067352;28;20444;-66
2022/07/07 15:13:09;;;;;;;1.85;0.70;;;;;;;;;;5066636;28;20025;-66
2022/07/07 15:15:35;;;;;;;3.55;0.90;;;;;;;;;;5068743;28;20096;-66
2022/07/07 15:18:02;;;;;;;5.22;0.80;;;;;;;;;;5065756;28;20021;-65
2022/07/07 15:20:28;;;;;;;2.97;0.82;;;;;;;;;;5067004;28;20434;-64
2022/07/07 15:22:54;;;;;;;2.33;1.00;;;;;;;;;;5066685;28;20459;-65
2022/07/07 15:25:20;;;;;;;3.08;1.00;;;;;;;;;;5066859;28;20455;-66
2022/07/07 15:27:48;;;;;;;2.90;0.70;;;;;;;;;;5066783;28;20047;-65
2022/07/07 15:31:59;;;;;;;6.40;0.93;;;;;;;;;;5086418;27;20607;-64
2022/07/07 15:34:25;;;;;;;4.35;1.05;;;;;;;;;;5066410;28;20025;-65
2022/07/07 15:36:51;;;;;;;1.77;0.90;;;;;;;;;;5066326;28;20017;-65
2022/07/07 15:39:17;;;;;;;3.25;0.95;;;;;;;;;;5068371;28;20391;-64
2022/07/07 15:41:43;;;;;;;2.42;0.90;;;;;;;;;;5067972;28;20104;-65
2022/07/07 15:44:09;;;;;;;2.45;0.93;;;;;;;;;;5067388;28;20040;-65
2022/07/07 15:46:35;;;;;;;2.40;0.90;;;;;;;;;;5083343;28;20032;-66
2022/07/07 15:49:01;;;;;;;10.00;1.00;;;;;;;;;;5067763;28;20021;-65
2022/07/07 15:51:28;;;;;;;2.47;1.00;;;;;;;;;;5067624;28;20435;-65
2022/07/07 15:53:54;;;;;;;1.17;0.77;;;;;;;;;;5067336;28;20037;-65
2022/07/07 15:56:20;;;;;;;3.75;0.95;;;;;;;;;;5067610;28;20024;-65
2022/07/07 15:58:46;;;;;;;3.72;1.30;;;;;;;;;;5067775;28;20033;-65
2022/07/07 16:01:12;;;;;;;2.15;0.90;;;;;;;;;;5066321;28;20052;-65
2022/07/07 16:06:23;;;;;;;3.53;0.85;;;;;;;;;;5067645;28;20036;-65
2022/07/07 16:08:49;;;;;;;11.13;1.20;;;;;;;;;;5083017;28;20108;-65
2022/07/07 16:11:15;;;;;;;2.22;0.88;;;;;;;;;;5067718;28;20071;-66
2022/07/07 16:13:41;;;;;;;6.35;1.65;;;;;;;;;;5066874;28;20021;-65
2022/07/07 16:16:08;;;;;;;1.50;1.00;;;;;;;;;;5066987;28;20025;-65
2022/07/07 16:18:34;;;;;;;1.73;1.10;;;;;;;;;;5067089;28;20032;-65
2022/07/07 16:21:00;;;;;;;4.75;1.20;;;;;;;;;;5066937;28;20130;-66
2022/07/07 16:23:26;;;;;;;1.00;0.90;;;;;;;;;;5066977;28;20043;-65
2022/07/07 16:25:52;;;;;;;4.10;1.38;;;;;;;;;;5066516;28;20056;-66
2022/07/07 16:28:18;;;;;;;2.10;0.90;;;;;;;;;;5068262;28;20032;-65
2022/07/07 16:30:44;;;;;;;3.80;1.30;;;;;;;;;;5064985;28;20044;-64
2022/07/07 16:33:10;;;;;;;4.32;1.20;;;;;;;;;;5076451;28;20459;-66
2022/07/07 16:35:36;;;;;;;4.32;1.60;;;;;;;;;;5087253;28;20459;-64
2022/07/07 16:38:03;;;;;;;3.28;1.63;;;;;;;;;;5086820;28;20099;-66
2022/07/07 16:40:29;;;;;;;2.75;1.65;;;;;;;;;;5087075;28;20437;-65
2022/07/07 16:42:55;;;;;;;5.28;1.80;;;;;;;;;;5075464;28;20020;-65
2022/07/07 16:45:21;;;;;;;5.78;1.65;;;;;;;;;;5058928;28;20037;-65
2022/07/07 16:47:47;;;;;;;6.05;1.30;;;;;;;;;;5053512;28;20033;-64
2022/07/07 16:50:13;;;;;;;3.20;2.10;;;;;;;;;;5053051;28;20519;-65
2022/07/07 16:52:39;;;;;;;3.70;1.77;;;;;;;;;;5053222;28;20025;-67
2022/07/07 16:55:05;;;;;;;6.57;1.98;;;;;;;;;;5052616;28;20025;-65
2022/07/07 16:57:32;;;;;;;2.30;1.77;;;;;;;;;;5051086;28;20025;-66
2022/07/07 16:59:58;;;;;;;6.75;1.80;;;;;;;;;;5051601;28;20052;-66
2022/07/07 17:02:25;;;;;;;5.53;1.77;;;;;;;;;;5051796;28;20029;-65
2022/07/07 17:04:51;;;;;;;2.05;1.85;;;;;;;;;;5053260;28;20310;-65
2022/07/07 17:07:17;;;;;;;11.70;1.80;;;;;;;;;;5051429;28;20021;-65
2022/07/07 17:09:44;;;;;;;4.53;2.53;;;;;;;;;;5052914;28;20117;-64
2022/07/07 17:12:11;;;;;;;5.85;2.45;;;;;;;;;;5052640;28;20063;-64
2022/07/07 17:14:37;;;;;;;3.25;1.80;;;;;;;;;;5052559;28;20464;-64
2022/07/07 17:17:03;;;;;;;2.58;2.30;;;;;;;;;;5035315;28;20128;-64
2022/07/07 17:19:29;;;;;;;11.05;3.03;;;;;;;;;;5052405;28;20029;-64
2022/07/07 17:21:55;;;;;;;4.90;2.22;;;;;;;;;;5052558;28;20037;-64
2022/07/07 17:24:22;;;;;;;4.03;1.80;;;;;;;;;;5052830;28;20036;-64
2022/07/07 17:26:49;;;;;;;2.67;1.75;;;;;;;;;;5052629;28;20129;-64
2022/07/07 17:29:15;;;;;;;2.88;1.75;;;;;;;;;;5067579;28;20025;-64
2022/07/07 17:31:42;;;;;;;11.02;3.83;;;;;;;;;;5052088;28;20132;-64
2022/07/07 17:34:08;;;;;;;3.67;1.60;;;;;;;;;;5052255;28;20103;-64
2022/07/07 17:36:34;;;;;;;9.80;2.83;;;;;;;;;;5067573;28;20025;-63
2022/07/07 17:39:00;;;;;;;1.30;1.17;;;;;;;;;;5051006;28;20472;-65
2022/07/07 17:41:26;;;;;;;5.55;1.55;;;;;;;;;;5052565;28;20451;-64
2022/07/07 17:45:24;;;;;;;3.60;1.70;;;;;;;;;;5067796;28;20434;-65
2022/07/07 17:47:51;;;;;;;2.47;1.77;;;;;;;;;;5068103;28;20031;-64
2022/07/07 17:50:17;;;;;;;2.40;1.27;;;;;;;;;;5067869;28;20143;-66
2022/07/07 17:52:43;;;;;;;2.20;1.48;;;;;;;;;;5067925;28;20425;-66
2022/07/07 17:55:09;;;;;;;2.10;1.33;;;;;;;;;;5066624;28;20033;-65
2022/07/07 17:57:35;;;;;;;2.42;1.60;;;;;;;;;;5066547;28;20108;-66
2022/07/07 18:00:01;;;;;;;7.32;1.83;;;;;;;;;;5066428;28;20028;-66
2022/07/07 18:02:27;;;;;;;7.57;1.60;;;;;;;;;;3797572;28;20003581;-66
2022/07/07 18:04:58;;;;;;;5.13;1.80;;;;;;;;;;5003219;28;20038;-64
2022/07/07 18:07:24;;;;;;;5.03;1.50;;;;;;;;;;5004567;28;20041;-65
2022/07/07 18:09:50;;;;;;;3.42;1.80;;;;;;;;;;5006453;28;20033;-65
2022/07/07 18:12:16;;;;;;;7.95;1.33;;;;;;;;;;5006282;28;20448;-66
2022/07/07 18:14:42;;;;;;;3.63;1.30;;;;;;;;;;5007547;28;20030;-65
2022/07/07 18:17:09;;;;;;;2.75;1.17;;;;;;;;;;5007050;28;20029;-64
2022/07/07 18:19:35;;;;;;;2.20;1.30;;;;;;;;;;5005578;28;20026;-64
2022/07/07 18:22:01;;;;;;;4.57;1.00;;;;;;;;;;5007411;28;20080;-64
2022/07/07 18:24:27;;;;;;;3.50;1.08;;;;;;;;;;5006830;28;20105;-63
2022/07/07 18:26:53;;;;;;;2.15;0.85;;;;;;;;;;5007678;28;20023;-62
2022/07/07 18:29:19;;;;;;;2.42;1.38;;;;;;;;;;5007324;28;20030;-65
2022/07/07 18:31:45;;;;;;;1.75;1.13;;;;;;;;;;5007660;28;20054;-65
2022/07/07 18:34:11;;;;;;;3.95;1.27;;;;;;;;;;5005215;28;20026;-65
2022/07/07 18:36:38;;;;;;;2.63;1.20;;;;;;;;;;5007460;28;20485;-66
2022/07/07 18:39:04;;;;;;;3.60;1.25;;;;;;;;;;5007230;28;20042;-66
2022/07/07 18:41:30;;;;;;;3.55;1.58;;;;;;;;;;5006884;28;20022;-65
2022/07/07 18:43:56;;;;;;;1.98;1.25;;;;;;;;;;5006736;28;20133;-65
2022/07/07 18:46:23;;;;;;;3.50;1.52;;;;;;;;;;5006476;28;20033;-66
2022/07/07 18:48:49;;;;;;;2.22;1.58;;;;;;;;;;4987452;28;20030;-65
2022/07/07 18:51:33;;;;;;;3.03;1.45;;;;;;;;;;4991395;28;20124;-65
2022/07/07 18:53:59;;;;;;;4.53;1.70;;;;;;;;;;5006029;28;20477;-66
2022/07/07 18:56:25;;;;;;;3.53;1.73;;;;;;;;;;4995931;28;20061;-63
2022/07/07 18:58:51;;;;;;;5.28;1.70;;;;;;;;;;4994198;28;20049;-64
2022/07/07 19:01:17;;;;;;;2.13;1.42;;;;;;;;;;4994139;28;20133;-63
2022/07/07 19:03:44;;;;;;;4.00;2.13;;;;;;;;;;4993320;28;20061;-63
2022/07/07 19:06:10;;;;;;;1.85;1.40;;;;;;;;;;4993854;28;20026;-65
2022/07/07 19:08:36;;;;;;;2.80;1.67;;;;;;;;;;4993750;28;20057;-64
2022/07/07 19:11:02;;;;;;;1.83;1.60;;;;;;;;;;4994107;28;20023;-64
2022/07/07 19:13:28;;;;;;;2.38;1.48;;;;;;;;;;4993925;28;20027;-65
2022/07/07 19:15:55;;;;;;;3.00;1.95;;;;;;;;;;4993855;28;20061;-64
2022/07/07 19:18:21;;;;;;;2.75;1.75;;;;;;;;;;4992645;28;20022;-63
2022/07/07 19:20:47;;;;;;;2.63;1.45;;;;;;;;;;4996573;28;20053;-64
2022/07/07 19:23:13;;;;;;;3.33;1.83;;;;;;;;;;4998700;28;20085;-64
2022/07/07 19:25:39;;;;;;;4.75;1.70;;;;;;;;;;4993708;28;20053;-63
2022/07/07 19:28:09;;;;;;;3.67;1.60;;;;;;;;;;4993282;28;20482;-64
2022/07/07 19:30:35;;;;;;;2.00;1.33;;;;;;;;;;4996718;28;20026;-64
2022/07/07 19:33:01;;;;;;;4.05;1.30;;;;;;;;;;5011430;28;20034;-64
2022/07/07 19:35:27;;;;;;;4.55;1.60;;;;;;;;;;4999950;28;20061;-63
2022/07/07 19:37:53;;;;;;;4.28;1.73;;;;;;;;;;4993692;28;20022;-63
2022/07/07 19:40:20;;;;;;;4.13;1.88;;;;;;;;;;4994300;28;20030;-63
2022/07/07 19:42:47;;;;;;;1.75;1.30;;;;;;;;;;4985751;28;20030;-63
2022/07/07 19:45:13;;;;;;;2.80;1.67;;;;;;;;;;4979534;28;20092;-64
2022/07/07 19:47:39;;;;;;;3.92;1.60;;;;;;;;;;4980605;28;20101;-63
2022/07/07 19:50:06;;;;;;;5.75;1.80;;;;;;;;;;4991638;28;20774;-63
2022/07/07 19:52:32;;;;;;;2.85;1.90;;;;;;;;;;4991084;28;20409;-62
2022/07/07 19:54:59;;;;;;;2.90;1.90;;;;;;;;;;4992769;28;20023;-61
2022/07/07 19:57:25;;;;;;;3.92;1.73;;;;;;;;;;4992395;28;20053;-63
2022/07/07 19:59:51;;;;;;;3.03;1.88;;;;;;;;;;4992911;28;20031;-63
2022/07/07 20:02:17;;;;;;;2.80;2.17;;;;;;;;;;4994562;28;20117;-63
2022/07/07 20:04:43;;;;;;;3.17;1.80;;;;;;;;;;5010050;28;20100;-62
2022/07/07 20:07:09;;;;;;;2.72;1.65;;;;;;;;;;5011336;28;20025;-63
2022/07/07 20:09:35;;;;;;;3.95;2.33;;;;;;;;;;4998954;28;20034;-64
2022/07/07 20:12:01;;;;;;;3.60;2.20;;;;;;;;;;4992851;28;20030;-63
2022/07/07 20:14:29;;;;;;;7.78;2.17;;;;;;;;;;4995456;28;20498;-64
2022/07/07 20:16:55;;;;;;;3.47;2.08;;;;;;;;;;4991703;28;20117;-64
2022/07/07 20:19:21;;;;;;;5.25;3.15;;;;;;;;;;4991793;28;20030;-64
2022/07/07 20:21:47;;;;;;;3.25;2.28;;;;;;;;;;4992634;28;20081;-64
2022/07/07 20:24:13;;;;;;;9.60;2.53;;;;;;;;;;4993531;28;20367;-63
2022/07/07 20:26:39;;;;;;;4.32;2.55;;;;;;;;;;5023937;28;20092;-63
2022/07/07 20:29:05;;;;;;;5.30;2.58;;;;;;;;;;5021782;28;20022;-63
2022/07/07 20:31:32;;;;;;;7.63;2.42;;;;;;;;;;4995319;28;20028;-63
2022/07/07 20:33:58;;;;;;;3.28;2.30;;;;;;;;;;4992557;28;20034;-63
2022/07/07 20:36:24;;;;;;;4.35;2.65;;;;;;;;;;4992008;28;20393;-64
2022/07/07 20:38:50;;;;;;;9.95;2.50;;;;;;;;;;4978313;28;20082;-64
2022/07/07 20:41:16;;;;;;;7.55;3.53;;;;;;;;;;4988011;28;20547;-63
2022/07/07 20:43:42;;;;;;;5.30;2.58;;;;;;;;;;4991915;28;20043;-63
2022/07/07 20:46:11;;;;;;;4.07;2.53;;;;;;;;;;4991248;28;20072;-63
2022/07/07 20:48:37;;;;;;;4.78;2.67;;;;;;;;;;4988303;28;20049;-66
2022/07/07 20:51:04;;;;;;;4.68;2.70;;;;;;;;;;4992086;28;20025;-65
2022/07/07 20:53:30;;;;;;;5.43;2.42;;;;;;;;;;4992138;28;20490;-65
2022/07/07 20:55:56;;;;;;;4.32;2.33;;;;;;;;;;4974431;28;20022;-66
2022/07/07 20:58:22;;;;;;;7.47;3.20;;;;;;;;;;4991648;28;20034;-66
2022/07/07 21:00:48;;;;;;;6.63;2.63;;;;;;;;;;4991656;28;20378;-65
2022/07/07 21:03:15;;;;;;;6.70;2.83;;;;;;;;;;4991232;28;20026;-65
2022/07/07 21:05:41;;;;;;;4.55;2.58;;;;;;;;;;5002354;28;20113;-65
2022/07/07 21:08:07;;;;;;;5.50;2.20;;;;;;;;;;4993302;28;20073;-65
2022/07/07 21:10:33;;;;;;;4.05;2.45;;;;;;;;;;4992016;28;20027;-65
2022/07/07 21:12:59;;;;;;;5.15;2.80;;;;;;;;;;4991228;28;20027;-65
2022/07/07 21:15:25;;;;;;;6.40;2.50;;;;;;;;;;4996375;28;20515;-65
2022/07/07 21:17:52;;;;;;;3.88;2.38;;;;;;;;;;4994457;28;20034;-66
2022/07/07 21:20:18;;;;;;;5.35;2.78;;;;;;;;;;5000937;28;20022;-65
2022/07/07 21:22:44;;;;;;;4.13;2.50;;;;;;;;;;4996266;28;20036;-65
2022/07/07 21:25:11;;;;;;;3.58;2.65;;;;;;;;;;5009737;28;20037;-65
2022/07/07 21:27:38;;;;;;;8.73;2.60;;;;;;;;;;5003244;28;20024;-65
2022/07/07 21:30:04;;;;;;;4.93;2.50;;;;;;;;;;4996216;28;20497;-65
2022/07/07 21:32:30;;;;;;;5.22;2.38;;;;;;;;;;4997840;28;20033;-65
2022/07/07 21:34:58;;;;;;;7.28;2.60;;;;;;;;;;4991566;28;20023;-65
2022/07/07 21:37:25;;;;;;;3.80;2.35;;;;;;;;;;4993586;28;20401;-65
2022/07/07 21:39:51;;;;;;;4.18;2.20;;;;;;;;;;4992354;28;20035;-66
2022/07/07 21:42:17;;;;;;;4.50;2.22;;;;;;;;;;4991081;28;20053;-64
2022/07/07 21:44:43;;;;;;;3.63;2.38;;;;;;;;;;4991168;28;20042;-63
2022/07/07 21:47:09;;;;;;;3.53;1.63;;;;;;;;;;4989501;28;20033;-63
2022/07/07 21:49:35;;;;;;;16.92;2.08;;;;;;;;;;4991422;28;20030;-63
2022/07/07 21:52:02;;;;;;;3.95;1.55;;;;;;;;;;4990333;28;20050;-63
2022/07/07 21:54:28;;;;;;;4.15;1.67;;;;;;;;;;4989842;28;20437;-63
2022/07/07 21:56:54;;;;;;;4.18;1.52;;;;;;;;;;4997717;28;20106;-63
2022/07/07 21:59:21;;;;;;;2.25;1.38;;;;;;;;;;4991291;28;20023;-63
2022/07/07 22:01:49;;;;;;;2.28;1.30;;;;;;;;;;4991087;28;20058;-63
2022/07/07 22:07:03;;;;;;;3.22;2.05;;;;;;;;;;4997718;28;20041;-63
2022/07/07 22:09:29;;;;;;;1.85;1.45;;;;;;;;;;5020748;28;20077;-63
2022/07/07 22:11:55;;;;;;;2.35;1.58;;;;;;;;;;4992861;28;20026;-63
2022/07/07 22:14:21;;;;;;;1.95;1.42;;;;;;;;;;4994315;28;20494;-64
2022/07/07 22:16:48;;;;;;;3.47;1.70;;;;;;;;;;4993950;28;20482;-63
